Time;durP1;ratioP1;P1;durP2;ratioP2;P2;SDS_P1;SDS_P2;PMS_P1;PMS_P2;Temp;Humidity;BMP_temperature;BMP_pressure;BME280_temperature;BME280_humidity;BME280_pressure;Samples;Min_cycle;Max_cycle;Signal;HPM_P1;HPM_P2
2021/10/04 00:01:18;;;;;;;9.60;6.60;;;;;;;17.99;100.00;97509.84;4903044;29;20436;-80
2021/10/04 00:03:45;;;;;;;10.23;6.57;;;;;;;18.03;100.00;97519.72;4935073;29;20488;-81
2021/10/04 00:06:12;;;;;;;11.63;6.28;;;;;;;18.05;100.00;97511.13;4935662;29;20051;-82
2021/10/04 00:08:39;;;;;;;11.52;6.63;;;;;;;18.03;100.00;97511.50;4936328;29;20048;-78
2021/10/04 00:11:06;;;;;;;12.85;6.13;;;;;;;18.07;100.00;97519.00;4920323;29;20095;-81
2021/10/04 00:13:33;;;;;;;12.95;6.95;;;;;;;18.01;100.00;97510.28;4919448;29;20155;-79
2021/10/04 00:16:00;;;;;;;9.70;6.50;;;;;;;17.95;100.00;97506.25;4918462;29;20048;-82
2021/10/04 00:18:27;;;;;;;10.75;6.85;;;;;;;17.98;100.00;97511.81;4935624;29;20416;-82
2021/10/04 00:20:53;;;;;;;15.20;7.05;;;;;;;17.86;100.00;97522.16;4935722;29;20103;-81
2021/10/04 00:23:20;;;;;;;10.32;6.50;;;;;;;17.93;100.00;97514.84;4919056;29;20043;-81
2021/10/04 00:25:47;;;;;;;10.63;7.00;;;;;;;17.95;100.00;97514.47;4918811;29;20469;-80
2021/10/04 00:28:14;;;;;;;10.43;6.90;;;;;;;18.02;100.00;97517.31;4919514;29;20051;-80
2021/10/04 00:30:41;;;;;;;10.73;6.82;;;;;;;17.90;100.00;97520.25;4918433;29;20054;-83
2021/10/04 00:33:08;;;;;;;8.68;6.25;;;;;;;17.91;100.00;97510.91;4935982;29;20268;-83
2021/10/04 00:35:35;;;;;;;13.27;7.07;;;;;;;17.83;100.00;97528.38;4935655;29;20063;-82
2021/10/04 00:38:01;;;;;;;10.40;6.78;;;;;;;17.87;100.00;97540.16;4935579;29;20085;-83
2021/10/04 00:40:31;;;;;;;13.82;7.00;;;;;;;17.81;100.00;97534.19;4902173;29;20497;-78
2021/10/04 00:42:58;;;;;;;10.77;6.95;;;;;;;17.85;100.00;97529.59;4935660;29;20394;-83
2021/10/04 00:45:25;;;;;;;12.00;7.43;;;;;;;17.87;100.00;97529.19;4935503;29;20048;-83
2021/10/04 00:47:52;;;;;;;12.68;7.57;;;;;;;17.71;100.00;97536.72;4918606;29;20054;-77
2021/10/04 00:50:21;;;;;;;15.30;7.57;;;;;;;17.69;100.00;97528.88;4918905;29;20104;-82
2021/10/04 00:52:49;;;;;;;14.63;8.05;;;;;;;17.70;100.00;97538.69;4935578;29;20351;-82
2021/10/04 00:55:16;;;;;;;17.00;7.82;;;;;;;17.82;100.00;97546.72;4928691;29;20052;-81
2021/10/04 00:57:43;;;;;;;10.15;7.00;;;;;;;17.78;100.00;97545.09;4941243;29;20047;-79
2021/10/04 01:00:13;;;;;;;10.85;7.32;;;;;;;17.71;100.00;97528.50;4936833;29;20412;-83
2021/10/04 01:02:40;;;;;;;13.07;7.45;;;;;;;17.62;100.00;97527.97;4922304;29;20054;-82
2021/10/04 01:05:10;;;;;;;10.93;7.75;;;;;;;17.59;100.00;97547.84;4938350;29;20082;-82
2021/10/04 01:07:37;;;;;;;11.70;7.38;;;;;;;17.63;100.00;97541.28;4938336;29;20330;-81
2021/10/04 01:10:05;;;;;;;14.55;7.53;;;;;;;17.59;100.00;97543.19;4940934;29;20047;-82
2021/10/04 01:12:32;;;;;;;11.27;7.68;;;;;;;17.83;100.00;97548.28;4944360;29;20534;-79
2021/10/04 01:14:59;;;;;;;14.93;7.60;;;;;;;17.78;100.00;97548.59;4940788;29;20051;-79
2021/10/04 01:17:26;;;;;;;14.30;7.60;;;;;;;17.87;100.00;97553.84;4905829;29;20051;-78
2021/10/04 01:19:53;;;;;;;13.35;8.23;;;;;;;17.75;100.00;97543.88;4922210;29;20426;-82
2021/10/04 01:22:19;;;;;;;11.63;7.50;;;;;;;17.81;100.00;97536.13;4939770;29;20047;-82
2021/10/04 01:24:46;;;;;;;10.15;6.80;;;;;;;17.79;100.00;97543.91;4939177;29;20043;-81
2021/10/04 01:27:12;;;;;;;11.15;7.13;;;;;;;17.71;100.00;97545.75;4921760;29;20126;-82
2021/10/04 01:29:39;;;;;;;13.88;7.57;;;;;;;17.63;100.00;97551.44;4921543;29;20222;-79
2021/10/04 01:32:06;;;;;;;14.25;8.43;;;;;;;17.71;100.00;97544.94;4903878;29;20055;-79
2021/10/04 01:34:33;;;;;;;14.00;8.20;;;;;;;17.72;100.00;97543.81;4939116;29;20044;-83
2021/10/04 01:37:00;;;;;;;12.88;8.20;;;;;;;17.65;100.00;97549.94;4938853;29;20524;-84
2021/10/04 01:39:26;;;;;;;14.63;8.20;;;;;;;17.56;100.00;97551.31;4921893;29;20044;-82
2021/10/04 01:41:53;;;;;;;12.23;8.32;;;;;;;17.49;100.00;97549.22;4921312;29;20060;-81
2021/10/04 01:44:19;;;;;;;13.10;8.40;;;;;;;17.47;100.00;97550.72;4921456;29;20614;-83
2021/10/04 01:46:46;;;;;;;16.38;8.45;;;;;;;17.26;100.00;97568.31;4938522;29;20043;-80
2021/10/04 01:49:13;;;;;;;14.85;8.93;;;;;;;17.27;100.00;97566.34;4938699;29;20040;-82
2021/10/04 01:51:39;;;;;;;15.27;8.63;;;;;;;17.15;100.00;97569.22;4938119;29;20444;-80
2021/10/04 01:54:06;;;;;;;12.77;8.27;;;;;;;17.19;100.00;97581.81;4936402;29;20051;-80
2021/10/04 01:56:33;;;;;;;13.73;8.52;;;;;;;17.10;100.00;97578.50;4921604;29;20043;-78
2021/10/04 01:59:00;;;;;;;17.38;8.70;;;;;;;17.03;100.00;97578.38;4921335;29;20047;-82
2021/10/04 02:01:26;;;;;;;13.55;8.65;;;;;;;17.12;100.00;97576.19;4938651;29;20465;-80
2021/10/04 02:03:54;;;;;;;13.27;8.32;;;;;;;17.00;100.00;97570.88;4921009;29;20563;-79
2021/10/04 02:06:21;;;;;;;13.30;8.30;;;;;;;17.09;100.00;97585.13;4937842;29;20588;-80
2021/10/04 02:08:47;;;;;;;13.23;8.65;;;;;;;16.96;100.00;97580.13;4936300;29;20054;-81
2021/10/04 02:11:14;;;;;;;13.70;8.35;;;;;;;17.03;100.00;97574.84;4937085;29;20051;-83
2021/10/04 02:13:41;;;;;;;10.93;7.78;;;;;;;16.97;100.00;97570.78;4937934;29;20047;-82
2021/10/04 02:16:08;;;;;;;12.98;7.68;;;;;;;17.02;100.00;97565.84;4919426;29;20086;-82
2021/10/04 02:18:34;;;;;;;11.10;6.97;;;;;;;17.04;100.00;97585.41;4936588;29;20048;-81
2021/10/04 02:21:01;;;;;;;10.90;7.00;;;;;;;17.10;100.00;97589.47;4919657;29;20218;-81
2021/10/04 02:23:30;;;;;;;13.40;7.20;;;;;;;17.09;100.00;97598.81;4920175;29;20508;-79
2021/10/04 02:25:56;;;;;;;9.65;6.60;;;;;;;17.05;100.00;97600.69;4936198;29;20055;-80
2021/10/04 02:28:23;;;;;;;11.43;6.45;;;;;;;17.12;100.00;97592.63;4936470;29;20385;-79
2021/10/04 02:30:51;;;;;;;10.27;6.10;;;;;;;17.11;100.00;97595.72;4929363;29;20103;-80
2021/10/04 02:33:21;;;;;;;9.60;6.00;;;;;;;17.20;100.00;97607.25;4939570;29;20039;-81
2021/10/04 02:35:48;;;;;;;9.65;6.22;;;;;;;17.18;100.00;97606.81;4935739;29;20036;-78
2021/10/04 02:38:15;;;;;;;10.07;6.05;;;;;;;17.25;100.00;97605.03;4919767;29;20043;-80
2021/10/04 02:40:42;;;;;;;10.07;6.35;;;;;;;17.22;100.00;97611.19;4937470;29;20047;-82
2021/10/04 02:43:09;;;;;;;8.55;5.70;;;;;;;17.26;100.00;97614.81;4920420;29;20135;-79
2021/10/04 02:45:36;;;;;;;9.05;5.85;;;;;;;17.33;100.00;97614.97;4937643;29;20050;-81
2021/10/04 02:48:04;;;;;;;10.07;6.13;;;;;;;17.29;100.00;97602.38;4937842;29;20052;-79
2021/10/04 02:50:30;;;;;;;10.23;5.75;;;;;;;17.06;100.00;97598.75;4941087;29;20043;-80
2021/10/04 02:52:57;;;;;;;9.50;6.22;;;;;;;17.21;100.00;97606.09;4936461;29;20061;-79
2021/10/04 02:55:24;;;;;;;10.73;6.70;;;;;;;17.21;100.00;97614.31;4936198;29;20048;-80
2021/10/04 02:57:50;;;;;;;9.35;6.35;;;;;;;17.21;100.00;97622.50;4934851;29;20055;-80
2021/10/04 03:00:33;;;;;;;8.77;5.95;;;;;;;17.23;100.00;97620.22;4943729;29;20059;-78
2021/10/04 03:03:02;;;;;;;9.15;5.95;;;;;;;17.17;100.00;97622.44;4947705;29;20100;-78
2021/10/04 03:05:29;;;;;;;9.32;6.25;;;;;;;17.13;100.00;97627.03;4948282;29;20047;-77
2021/10/04 03:07:57;;;;;;;8.63;5.90;;;;;;;17.11;100.00;97615.63;4950484;29;20103;-82
2021/10/04 03:10:24;;;;;;;8.57;5.65;;;;;;;17.23;100.00;97637.44;4940116;29;20039;-81
2021/10/04 03:12:51;;;;;;;8.60;5.80;;;;;;;17.17;100.00;97649.78;4922224;29;20047;-82
2021/10/04 03:15:17;;;;;;;8.25;5.75;;;;;;;17.17;100.00;97646.25;4922213;29;20099;-79
2021/10/04 03:17:44;;;;;;;7.90;5.75;;;;;;;17.16;100.00;97650.94;4945783;29;20047;-78
2021/10/04 03:20:10;;;;;;;9.57;5.70;;;;;;;17.06;100.00;97646.00;4941321;29;20043;-82
2021/10/04 03:22:37;;;;;;;8.27;5.80;;;;;;;17.01;100.00;97651.75;4929574;29;20051;-83
2021/10/04 03:25:05;;;;;;;11.63;5.75;;;;;;;17.05;100.00;97647.19;4946667;29;20471;-80
2021/10/04 03:27:32;;;;;;;12.25;6.30;;;;;;;17.00;100.00;97652.94;4930713;29;20052;-78
2021/10/04 03:29:59;;;;;;;12.82;7.25;;;;;;;16.96;100.00;97651.22;4933362;29;20637;-83
2021/10/04 03:32:26;;;;;;;9.95;6.70;;;;;;;16.88;100.00;97655.75;4945559;29;20118;-80
2021/10/04 03:34:52;;;;;;;10.15;6.38;;;;;;;16.88;100.00;97661.22;4946913;29;20098;-81
2021/10/04 03:37:19;;;;;;;11.50;6.35;;;;;;;16.83;100.00;97669.69;4928028;29;20043;-82
2021/10/04 03:39:45;;;;;;;8.73;5.45;;;;;;;16.89;100.00;97672.94;4947642;29;20043;-81
2021/10/04 03:42:12;;;;;;;8.80;6.03;;;;;;;16.83;100.00;97680.63;4923884;29;20048;-79
2021/10/04 03:44:39;;;;;;;11.32;5.95;;;;;;;16.76;100.00;97672.25;4917722;29;20413;-80
2021/10/04 03:47:05;;;;;;;13.13;6.63;;;;;;;16.83;100.00;97684.16;4916559;29;20048;-82
2021/10/04 03:49:32;;;;;;;11.15;5.40;;;;;;;16.85;100.00;97688.50;4932533;29;20094;-82
2021/10/04 03:52:00;;;;;;;9.02;5.80;;;;;;;16.73;100.00;97673.75;4946096;29;20058;-80
2021/10/04 03:54:26;;;;;;;8.85;5.63;;;;;;;16.85;100.00;97680.28;4936803;29;20112;-80
2021/10/04 03:56:53;;;;;;;9.73;5.88;;;;;;;16.79;100.00;97683.28;4941704;29;20078;-80
2021/10/04 03:59:19;;;;;;;10.63;5.63;;;;;;;17.02;100.00;97675.22;4923085;29;20050;-80
2021/10/04 04:01:46;;;;;;;7.20;5.00;;;;;;;16.98;100.00;97668.09;4923165;29;20047;-83
2021/10/04 04:04:13;;;;;;;6.07;4.43;;;;;;;16.99;100.00;97686.09;4946868;29;20146;-82
2021/10/04 04:06:41;;;;;;;8.82;4.80;;;;;;;16.93;100.00;97706.66;4958061;29;20044;-79
2021/10/04 04:09:07;;;;;;;7.05;4.70;;;;;;;16.96;100.00;97681.31;4958359;29;20044;-79
2021/10/04 04:11:34;;;;;;;8.00;4.68;;;;;;;17.06;100.00;97695.25;4961793;29;20138;-76
2021/10/04 04:14:01;;;;;;;8.65;4.95;;;;;;;16.98;100.00;97700.94;4940305;29;20066;-81
2021/10/04 04:16:28;;;;;;;9.27;5.32;;;;;;;16.87;100.00;97714.34;4939834;29;20047;-79
2021/10/04 04:18:55;;;;;;;9.02;5.55;;;;;;;16.90;100.00;97710.09;4940539;29;20058;-82
2021/10/04 04:21:22;;;;;;;7.95;5.65;;;;;;;16.90;100.00;97710.91;4939300;29;20138;-79
2021/10/04 04:24:10;;;;;;;7.90;5.43;;;;;;;16.92;100.00;97707.81;4957394;29;20039;-82
2021/10/04 04:26:37;;;;;;;9.00;5.65;;;;;;;16.91;100.00;97719.88;4954646;29;20062;-81
2021/10/04 04:29:04;;;;;;;8.05;5.55;;;;;;;16.98;100.00;97711.88;4939415;29;20047;-79
2021/10/04 04:31:30;;;;;;;10.35;6.10;;;;;;;16.89;100.00;97695.63;4938355;29;20039;-80
2021/10/04 04:33:57;;;;;;;9.48;5.75;;;;;;;16.87;100.00;97694.41;4950587;29;20039;-80
2021/10/04 04:36:24;;;;;;;10.85;5.65;;;;;;;16.65;100.00;97704.81;4930364;29;20040;-78
2021/10/04 04:38:51;;;;;;;11.88;5.82;;;;;;;16.65;100.00;97706.75;4928542;29;20054;-80
2021/10/04 04:41:18;;;;;;;10.85;5.50;;;;;;;16.62;100.00;97704.72;4927901;29;20044;-80
2021/10/04 04:43:45;;;;;;;12.93;6.03;;;;;;;16.59;100.00;97702.69;4916976;29;20047;-82
2021/10/04 04:46:12;;;;;;;13.40;5.32;;;;;;;16.64;100.00;97711.44;4922665;29;20058;-78
2021/10/04 04:48:39;;;;;;;12.60;5.25;;;;;;;16.54;100.00;97717.41;4940370;29;20134;-80
2021/10/04 04:51:05;;;;;;;14.50;4.85;;;;;;;16.51;100.00;97704.44;4939393;29;20047;-80
2021/10/04 04:53:32;;;;;;;9.63;5.35;;;;;;;16.53;100.00;97699.44;4928541;29;20055;-85
2021/10/04 04:55:58;;;;;;;9.63;5.05;;;;;;;16.49;100.00;97714.13;4910853;29;20062;-78
2021/10/04 04:58:25;;;;;;;14.80;5.03;;;;;;;16.42;100.00;97706.50;4922143;29;20055;-81
2021/10/04 05:00:52;;;;;;;13.80;5.20;;;;;;;16.58;100.00;97712.03;4939714;29;20047;-83
2021/10/04 05:03:19;;;;;;;13.75;5.18;;;;;;;16.53;100.00;97706.81;4940193;29;20108;-80
2021/10/04 05:05:45;;;;;;;18.45;5.10;;;;;;;16.47;100.00;97719.13;4922852;29;20056;-82
2021/10/04 05:08:12;;;;;;;12.35;4.70;;;;;;;16.34;100.00;97715.66;4939656;29;20074;-84
2021/10/04 05:10:39;;;;;;;11.20;4.70;;;;;;;16.29;100.00;97723.31;4942029;29;20093;-86
2021/10/04 05:13:06;;;;;;;15.55;4.78;;;;;;;16.39;100.00;97731.81;4907077;29;20052;-83
2021/10/04 05:15:35;;;;;;;9.77;4.10;;;;;;;16.39;100.00;97728.31;4940193;23;20044;-83
2021/10/04 05:18:04;;;;;;;11.63;4.72;;;;;;;16.30;100.00;97725.72;4885754;29;20138;-85
2021/10/04 05:20:31;;;;;;;19.48;4.93;;;;;;;16.32;100.00;97741.75;4901203;29;20097;-84
2021/10/04 05:22:58;;;;;;;20.73;5.10;;;;;;;16.35;100.00;97746.53;4901397;29;20304;-84
2021/10/04 05:25:28;;;;;;;17.38;4.80;;;;;;;16.38;100.00;97741.16;4879040;29;20084;-84
2021/10/04 05:27:55;;;;;;;12.20;4.45;;;;;;;16.46;100.00;97770.28;4895996;29;20049;-82
2021/10/04 05:30:22;;;;;;;15.52;5.00;;;;;;;16.42;100.00;97761.16;4889064;29;20049;-83
2021/10/04 05:32:48;;;;;;;8.35;4.68;;;;;;;16.49;100.00;97771.50;4878917;29;20056;-84
2021/10/04 05:35:15;;;;;;;12.82;4.70;;;;;;;16.53;100.00;97781.41;4877021;29;20675;-84
2021/10/04 05:37:42;;;;;;;7.68;4.40;;;;;;;16.56;100.00;97771.72;4894924;29;20044;-83
2021/10/04 05:40:10;;;;;;;10.05;4.47;;;;;;;16.53;100.00;97769.69;4908834;29;20444;-83
2021/10/04 05:42:36;;;;;;;11.95;4.53;;;;;;;16.54;100.00;97774.78;4866694;29;20048;-84
2021/10/04 05:45:08;;;;;;;9.98;4.35;;;;;;;16.57;100.00;97770.59;4895552;29;20059;-83
2021/10/04 05:47:36;;;;;;;7.32;4.25;;;;;;;16.71;100.00;97755.34;4895978;29;20097;-83
2021/10/04 05:50:03;;;;;;;7.97;4.35;;;;;;;16.83;100.00;97771.66;4881575;29;20052;-83
2021/10/04 05:52:29;;;;;;;6.35;3.97;;;;;;;16.73;100.00;97766.72;4885428;29;20057;-83
2021/10/04 05:54:56;;;;;;;6.60;4.35;;;;;;;16.78;100.00;97762.91;4883729;29;20059;-83
2021/10/04 05:57:23;;;;;;;8.05;4.30;;;;;;;16.81;100.00;97760.28;4898420;29;20049;-83
2021/10/04 05:59:50;;;;;;;9.43;4.07;;;;;;;16.91;100.00;97758.97;4898964;29;20059;-83
2021/10/04 06:02:17;;;;;;;7.95;4.82;;;;;;;17.02;100.00;97768.22;4881317;29;20055;-83
2021/10/04 06:04:43;;;;;;;15.25;4.95;;;;;;;17.02;100.00;97770.97;4881047;29;20140;-84
2021/10/04 06:07:10;;;;;;;6.63;4.15;;;;;;;17.10;100.00;97777.41;4903773;29;20075;-84
2021/10/04 06:09:38;;;;;;;13.48;5.03;;;;;;;16.95;100.00;97773.53;4902372;29;20047;-84
2021/10/04 06:12:05;;;;;;;12.55;5.35;;;;;;;16.74;100.00;97770.25;4900743;29;20048;-84
2021/10/04 06:14:36;;;;;;;11.10;4.82;;;;;;;17.07;100.00;97786.31;4883422;29;20064;-84
2021/10/04 06:17:02;;;;;;;18.23;5.57;;;;;;;16.95;100.00;97778.22;4911044;29;20040;-84
2021/10/04 06:19:29;;;;;;;13.75;4.53;;;;;;;17.04;100.00;97774.13;4922435;29;20044;-83
2021/10/04 06:21:56;;;;;;;9.23;4.53;;;;;;;17.09;100.00;97771.13;4917028;29;20028;-85
2021/10/04 06:24:22;;;;;;;8.75;4.85;;;;;;;17.10;100.00;97775.47;4915736;29;20040;-84
2021/10/04 06:26:49;;;;;;;11.55;4.68;;;;;;;17.17;100.00;97775.63;4915953;29;20058;-83
2021/10/04 06:29:16;;;;;;;8.68;4.30;;;;;;;17.34;100.00;97758.84;4879699;29;20473;-84
2021/10/04 06:31:42;;;;;;;7.20;4.63;;;;;;;17.47;100.00;97772.44;4880842;29;20683;-83
2021/10/04 06:34:10;;;;;;;7.75;4.68;;;;;;;17.53;100.00;97779.22;4897394;29;20049;-84
2021/10/04 06:36:36;;;;;;;8.10;4.80;;;;;;;17.44;100.00;97782.16;4897532;29;20044;-84
2021/10/04 06:39:03;;;;;;;9.25;4.78;;;;;;;17.23;100.00;97798.06;4896380;29;20124;-83
2021/10/04 06:41:30;;;;;;;8.88;4.65;;;;;;;17.28;100.00;97800.53;4864446;29;20104;-84
2021/10/04 06:43:58;;;;;;;8.90;5.22;;;;;;;17.30;100.00;97815.44;4880433;29;20108;-84
2021/10/04 06:46:25;;;;;;;7.97;4.93;;;;;;;17.32;100.00;97820.53;4868509;29;20059;-85
2021/10/04 06:48:52;;;;;;;7.20;4.80;;;;;;;17.33;100.00;97817.47;4915559;29;20058;-83
2021/10/04 06:51:18;;;;;;;9.40;4.97;;;;;;;17.37;100.00;97820.28;4900031;29;20096;-84
2021/10/04 06:53:45;;;;;;;8.82;4.80;;;;;;;17.38;100.00;97822.69;4916730;29;20099;-83
2021/10/04 06:56:12;;;;;;;6.75;4.72;;;;;;;17.20;100.00;97832.41;4915706;29;20044;-84
2021/10/04 06:58:38;;;;;;;10.32;5.05;;;;;;;17.20;100.00;97845.28;4916935;29;20067;-84
2021/10/04 07:01:06;;;;;;;9.43;5.05;;;;;;;17.30;100.00;97856.50;4916281;29;20040;-83
2021/10/04 07:03:32;;;;;;;8.07;5.07;;;;;;;17.16;100.00;97850.66;4899695;29;20044;-83
2021/10/04 07:06:00;;;;;;;10.10;5.20;;;;;;;17.12;100.00;97843.50;4898826;29;20056;-83
2021/10/04 07:08:27;;;;;;;9.13;5.20;;;;;;;17.02;100.00;97828.41;4898990;29;20107;-82
2021/10/04 07:10:54;;;;;;;9.55;4.90;;;;;;;17.22;100.00;97851.97;4916048;29;20063;-83
2021/10/04 07:13:20;;;;;;;9.32;5.13;;;;;;;17.14;100.00;97852.16;4877819;29;20053;-83
2021/10/04 07:16:58;;;;;;;8.85;5.57;;;;;;;17.25;100.00;97848.53;5119631;27;20388;-78
2021/10/04 07:19:25;;;;;;;10.52;5.35;;;;;;;17.46;100.00;97831.84;5085416;28;20044;-78
2021/10/04 07:21:52;;;;;;;9.55;6.10;;;;;;;17.65;100.00;97825.69;5085716;28;20055;-79
2021/10/04 07:24:19;;;;;;;10.48;5.85;;;;;;;17.69;100.00;97849.25;5085755;28;20048;-78
2021/10/04 07:26:47;;;;;;;9.80;5.32;;;;;;;17.55;100.00;97854.38;5069326;28;20064;-79
2021/10/04 07:29:15;;;;;;;8.93;5.10;;;;;;;17.55;100.00;97875.50;5069023;28;20051;-78
2021/10/04 07:31:42;;;;;;;7.82;5.07;;;;;;;17.43;100.00;97879.09;5069952;28;20052;-77
2021/10/04 07:34:08;;;;;;;10.07;5.50;;;;;;;17.06;100.00;97884.00;5069556;28;20080;-79
2021/10/04 07:36:36;;;;;;;9.50;5.97;;;;;;;16.95;100.00;97891.16;5069140;28;20044;-78
2021/10/04 07:39:04;;;;;;;10.05;6.07;;;;;;;16.87;100.00;97891.28;5069510;28;20048;-78
2021/10/04 07:41:32;;;;;;;8.32;6.18;;;;;;;16.77;100.00;97912.53;5069360;28;20095;-77
2021/10/04 07:43:58;;;;;;;10.00;6.57;;;;;;;16.94;100.00;97918.81;5070106;28;20127;-80
2021/10/04 07:46:25;;;;;;;9.75;6.28;;;;;;;16.94;100.00;97927.84;5068824;28;20139;-77
2021/10/04 07:48:53;;;;;;;8.55;6.10;;;;;;;16.68;100.00;97925.53;5069758;28;20051;-79
2021/10/04 07:51:20;;;;;;;8.65;5.72;;;;;;;16.92;100.00;97912.91;5070981;28;20071;-79
2021/10/04 07:53:48;;;;;;;13.20;6.78;;;;;;;16.73;100.00;97927.22;5071304;28;20051;-80
2021/10/04 07:56:15;;;;;;;9.27;6.20;;;;;;;16.81;100.00;97937.22;5069359;28;20347;-78
2021/10/04 07:58:42;;;;;;;10.30;6.50;;;;;;;16.72;100.00;97940.09;5068200;28;20479;-77
2021/10/04 08:01:12;;;;;;;10.50;6.20;;;;;;;16.81;100.00;97918.09;5069040;28;20088;-78
2021/10/04 08:03:39;;;;;;;10.43;6.68;;;;;;;16.93;100.00;97917.25;5068392;28;20044;-79
2021/10/04 08:06:08;;;;;;;9.35;5.78;;;;;;;16.94;100.00;97903.22;5068397;28;20042;-77
2021/10/04 08:08:35;;;;;;;10.88;6.28;;;;;;;17.22;100.00;97912.19;5068701;28;20575;-77
2021/10/04 08:11:02;;;;;;;10.95;6.30;;;;;;;17.26;100.00;97913.09;5068179;28;20218;-78
2021/10/04 08:13:29;;;;;;;16.58;7.05;;;;;;;17.27;100.00;97917.38;5067912;28;20059;-78
2021/10/04 08:15:56;;;;;;;10.13;6.63;;;;;;;17.08;100.00;97925.50;5084131;28;20154;-77
2021/10/04 08:18:27;;;;;;;9.85;6.63;;;;;;;17.24;100.00;97926.31;5085843;28;20048;-79
2021/10/04 08:20:53;;;;;;;11.40;6.38;;;;;;;17.24;100.00;97937.25;5077410;28;20055;-79
2021/10/04 08:23:20;;;;;;;11.10;6.07;;;;;;;17.34;100.00;97931.25;5084501;28;20044;-78
2021/10/04 08:25:47;;;;;;;10.55;6.07;;;;;;;17.32;100.00;97928.06;5067627;28;20563;-78
2021/10/04 08:28:14;;;;;;;12.77;6.20;;;;;;;16.91;100.00;97941.41;5054677;28;20052;-78
2021/10/04 08:30:40;;;;;;;11.93;6.20;;;;;;;16.94;100.00;97944.25;5054618;28;20131;-77
2021/10/04 08:33:07;;;;;;;9.57;5.85;;;;;;;17.19;100.00;97947.63;5054275;28;20137;-77
2021/10/04 08:35:34;;;;;;;8.98;6.25;;;;;;;17.14;100.00;97939.69;5054241;28;20576;-77
2021/10/04 08:38:00;;;;;;;10.65;6.22;;;;;;;17.23;100.00;97941.16;5054683;28;20044;-79
2021/10/04 08:40:27;;;;;;;8.93;6.45;;;;;;;17.23;100.00;97945.81;5072486;28;20064;-77
2021/10/04 08:42:54;;;;;;;10.95;7.05;;;;;;;17.24;100.00;97950.16;5056064;28;20190;-77
2021/10/04 08:45:26;;;;;;;11.55;8.05;;;;;;;16.78;100.00;97954.31;5054417;28;20048;-78
2021/10/04 08:47:58;;;;;;;13.25;8.30;;;;;;;16.99;100.00;97959.59;5071082;28;20040;-79
2021/10/04 08:50:28;;;;;;;12.90;9.02;;;;;;;16.89;100.00;97949.97;5054197;28;20458;-77
2021/10/04 08:52:55;;;;;;;16.42;9.75;;;;;;;17.05;100.00;97947.28;5054471;28;20041;-79
2021/10/04 08:55:22;;;;;;;15.95;9.80;;;;;;;16.86;100.00;97958.84;5054646;28;20425;-80
2021/10/04 08:57:48;;;;;;;12.68;9.25;;;;;;;16.88;100.00;97959.28;5072531;28;20083;-80
2021/10/04 09:00:16;;;;;;;16.40;9.90;;;;;;;16.97;100.00;97957.22;5073870;28;20146;-79
2021/10/04 09:02:43;;;;;;;13.45;10.05;;;;;;;16.94;100.00;97963.38;5059964;28;20076;-79
2021/10/04 09:05:18;;;;;;;15.93;9.82;;;;;;;16.74;100.00;97954.25;5058647;28;20055;-79
2021/10/04 09:07:46;;;;;;;12.18;7.90;;;;;;;16.67;100.00;97958.72;5055510;28;20317;-79
2021/10/04 09:10:21;;;;;;;8.93;6.05;;;;;;;16.63;100.00;97963.25;5054783;28;20045;-78
2021/10/04 09:13:00;;;;;;;6.93;5.70;;;;;;;16.23;100.00;97960.47;5054338;28;20052;-78
2021/10/04 09:15:29;;;;;;;10.75;6.45;;;;;;;16.27;100.00;97961.38;5053233;28;20041;-79
2021/10/04 09:18:18;;;;;;;10.65;6.38;;;;;;;16.40;100.00;97964.88;5053720;28;20055;-78
2021/10/04 09:20:50;;;;;;;10.70;7.20;;;;;;;16.33;100.00;97964.66;5039795;28;20401;-77
2021/10/04 09:23:52;;;;;;;10.30;7.10;;;;;;;16.32;100.00;97960.34;5053343;28;20048;-77
2021/10/04 09:26:21;;;;;;;10.50;6.20;;;;;;;16.16;100.00;97965.69;5067551;28;20049;-77
2021/10/04 09:28:56;;;;;;;9.98;5.60;;;;;;;15.96;100.00;97958.44;5079768;28;20048;-78
2021/10/04 09:31:29;;;;;;;7.55;5.28;;;;;;;15.89;100.00;97966.41;5091144;28;20048;-77
2021/10/04 09:34:14;;;;;;;8.15;4.78;;;;;;;15.89;100.00;97967.22;5073370;28;20052;-77
2021/10/04 09:36:42;;;;;;;7.38;4.90;;;;;;;15.81;100.00;97970.03;5091855;28;20050;-77
2021/10/04 09:39:08;;;;;;;7.28;4.50;;;;;;;15.59;100.00;97980.25;5093284;28;20047;-77
2021/10/04 09:41:35;;;;;;;7.18;4.43;;;;;;;15.53;100.00;97984.34;5074743;28;20048;-76
2021/10/04 09:44:03;;;;;;;7.45;4.20;;;;;;;15.48;100.00;97984.56;5090342;28;20060;-78
2021/10/04 09:46:33;;;;;;;8.48;4.80;;;;;;;15.39;100.00;97969.38;5090647;28;20052;-78
2021/10/04 09:49:01;;;;;;;8.60;4.97;;;;;;;15.37;100.00;97982.56;5090415;28;20058;-78
2021/10/04 09:51:28;;;;;;;8.20;4.25;;;;;;;15.31;100.00;97964.81;5093227;28;20056;-78
2021/10/04 09:54:11;;;;;;;6.53;4.57;;;;;;;15.29;100.00;97967.88;5094154;28;20051;-78
2021/10/04 09:56:38;;;;;;;8.57;4.38;;;;;;;15.34;100.00;97969.59;5075657;28;20479;-76
2021/10/04 09:59:10;;;;;;;6.53;4.07;;;;;;;15.36;100.00;97961.84;5054382;28;20504;-77
2021/10/04 10:01:39;;;;;;;10.20;3.80;;;;;;;15.25;100.00;97975.13;5052027;28;20049;-79
2021/10/04 10:04:07;;;;;;;8.10;3.35;;;;;;;15.33;100.00;97978.91;5054457;28;20509;-78
2021/10/04 10:06:35;;;;;;;6.40;3.40;;;;;;;15.26;100.00;97992.28;5052884;28;20037;-79
2021/10/04 10:09:03;;;;;;;6.03;3.10;;;;;;;15.24;100.00;97994.56;5071345;28;20052;-78
2021/10/04 10:11:32;;;;;;;6.85;3.40;;;;;;;14.97;100.00;98004.91;5071779;28;20040;-79
2021/10/04 10:14:00;;;;;;;7.80;3.70;;;;;;;14.75;100.00;98004.47;5055172;28;20040;-78
2021/10/04 10:16:35;;;;;;;6.30;3.15;;;;;;;14.66;100.00;98014.66;5054810;28;20489;-78
2021/10/04 10:19:13;;;;;;;5.00;2.60;;;;;;;14.43;100.00;98022.31;5072926;28;20048;-79
2021/10/04 10:21:41;;;;;;;6.10;2.50;;;;;;;14.60;100.00;98024.94;5049431;28;20045;-77
2021/10/04 10:24:11;;;;;;;3.40;2.05;;;;;;;14.48;100.00;98029.50;5049584;28;20044;-78
2021/10/04 10:26:43;;;;;;;2.88;2.05;;;;;;;14.66;100.00;98031.00;5050186;28;20122;-78
2021/10/04 10:29:15;;;;;;;6.13;1.90;;;;;;;14.61;100.00;98026.53;5053772;28;20168;-78
2021/10/04 10:31:53;;;;;;;3.58;1.83;;;;;;;14.75;100.00;98032.53;5086694;28;20477;-78
2021/10/04 10:34:35;;;;;;;7.47;2.00;;;;;;;14.89;100.00;98030.31;5087031;28;20414;-79
2021/10/04 10:37:18;;;;;;;6.25;2.22;;;;;;;15.03;100.00;98027.31;5070887;28;20513;-77
2021/10/04 10:39:58;;;;;;;3.78;2.10;;;;;;;15.05;100.00;98026.97;5066311;28;20055;-77
2021/10/04 10:42:35;;;;;;;2.90;1.95;;;;;;;15.14;100.00;98028.50;5048557;28;20056;-80
2021/10/04 10:45:05;;;;;;;2.90;1.90;;;;;;;15.08;100.00;98031.75;5066518;28;20492;-77
2021/10/04 10:47:38;;;;;;;2.17;1.35;;;;;;;14.62;100.00;98017.22;5051410;28;20052;-78
2021/10/04 10:50:13;;;;;;;4.20;1.63;;;;;;;14.50;100.00;98027.25;5058755;28;20079;-76
2021/10/04 10:52:41;;;;;;;;;;;;;;;14.39;100.00;98036.94;5069787;28;20508;-76
2021/10/04 10:55:20;;;;;;;3.80;1.40;;;;;;;14.19;100.00;98036.53;5070182;28;19920;-77
2021/10/04 10:58:33;;;;;;;5.32;1.35;;;;;;;14.34;100.00;98048.81;5087089;28;20500;-78
2021/10/04 11:00:44;;;;;;;4.53;1.38;;;;;;;14.24;100.00;98055.41;5067967;28;20064;-78
2021/10/04 11:03:13;;;;;;;3.83;1.30;;;;;;;14.29;100.00;98054.41;5086382;28;20504;-78
2021/10/04 11:05:43;;;;;;;3.03;1.60;;;;;;;14.11;100.00;98061.06;5086131;28;20048;-78
2021/10/04 11:08:15;;;;;;;7.22;1.40;;;;;;;14.27;100.00;98059.41;5053282;28;20055;-78
2021/10/04 11:10:47;;;;;;;4.55;1.60;;;;;;;14.29;100.00;98062.59;5055174;28;20045;-77
2021/10/04 11:13:26;;;;;;;4.28;1.70;;;;;;;14.42;100.00;98053.41;5052439;28;20053;-78
2021/10/04 11:15:57;;;;;;;4.82;1.40;;;;;;;14.51;100.00;98062.31;5051687;28;20074;-79
2021/10/04 11:18:33;;;;;;;2.42;1.50;;;;;;;14.63;100.00;98067.09;5051937;28;20044;-79
2021/10/04 11:21:02;;;;;;;4.15;1.40;;;;;;;14.77;100.00;98059.44;5052102;28;20059;-79
2021/10/04 11:23:29;;;;;;;7.53;1.48;;;;;;;14.67;100.00;98059.81;5052325;28;20543;-77
2021/10/04 11:25:56;;;;;;;5.07;1.50;;;;;;;14.54;100.00;98072.56;5053311;28;20121;-79
2021/10/04 11:28:32;;;;;;;6.97;1.50;;;;;;;14.33;100.00;98063.56;5053370;28;20115;-79